sensor_id;sensor_type;location;lat;lon;timestamp;pressure;altitude;pressure_sealevel;temperature;humidity
13422;BME280;6782;55.904;13.396;2023-01-28T00:02:05;102211.13;;;-4.91;100.00
13422;BME280;6782;55.904;13.396;2023-01-28T00:04:54;102201.28;;;-5.11;100.00
13422;BME280;6782;55.904;13.396;2023-01-28T00:07:41;102200.50;;;-5.23;100.00
13422;BME280;6782;55.904;13.396;2023-01-28T00:10:29;102217.06;;;-5.05;100.00
13422;BME280;6782;55.904;13.396;2023-01-28T00:13:16;102207.97;;;-5.13;100.00
13422;BME280;6782;55.904;13.396;2023-01-28T00:16:05;102228.50;;;-4.87;100.00
13422;BME280;6782;55.904;13.396;2023-01-28T00:18:53;102214.47;;;-4.92;100.00
13422;BME280;6782;55.904;13.396;2023-01-28T00:21:42;102146.03;;;-5.85;100.00
13422;BME280;6782;55.904;13.396;2023-01-28T00:24:31;102174.72;;;-5.64;100.00
13422;BME280;6782;55.904;13.396;2023-01-28T00:27:18;102202.72;;;-5.42;100.00
13422;BME280;6782;55.904;13.396;2023-01-28T00:30:06;102206.06;;;-5.43;100.00
13422;BME280;6782;55.904;13.396;2023-01-28T00:32:56;102200.50;;;-5.49;100.00
13422;BME280;6782;55.904;13.396;2023-01-28T00:35:43;102200.50;;;-5.49;100.00
13422;BME280;6782;55.904;13.396;2023-01-28T00:38:32;102202.72;;;-5.42;100.00
13422;BME280;6782;55.904;13.396;2023-01-28T00:41:21;102205.06;;;-5.32;100.00
13422;BME280;6782;55.904;13.396;2023-01-28T00:44:09;102201.69;;;-5.31;100.00
13422;BME280;6782;55.904;13.396;2023-01-28T00:46:56;102218.50;;;-5.36;100.00
13422;BME280;6782;55.904;13.396;2023-01-28T00:49:43;102210.22;;;-5.45;100.00
13422;BME280;6782;55.904;13.396;2023-01-28T00:52:30;102221.75;;;-5.26;100.00
13422;BME280;6782;55.904;13.396;2023-01-28T00:55:19;102241.81;;;-5.07;100.00
13422;BME280;6782;55.904;13.396;2023-01-28T00:58:06;102224.09;;;-5.16;100.00
13422;BME280;6782;55.904;13.396;2023-01-28T01:00:53;102208.06;;;-5.39;100.00
13422;BME280;6782;55.904;13.396;2023-01-28T01:03:40;102210.00;;;-5.35;100.00
13422;BME280;6782;55.904;13.396;2023-01-28T01:06:29;102204.25;;;-5.44;100.00
13422;BME280;6782;55.904;13.396;2023-01-28T01:09:16;102212.28;;;-5.40;100.00
13422;BME280;6782;55.904;13.396;2023-01-28T01:12:05;102201.31;;;-5.37;100.00
13422;BME280;6782;55.904;13.396;2023-01-28T01:14:53;102211.47;;;-5.26;100.00
13422;BME280;6782;55.904;13.396;2023-01-28T01:17:42;102196.38;;;-5.34;100.00
13422;BME280;6782;55.904;13.396;2023-01-28T01:20:29;102193.22;;;-5.43;100.00
13422;BME280;6782;55.904;13.396;2023-01-28T01:23:18;102192.78;;;-5.36;100.00
13422;BME280;6782;55.904;13.396;2023-01-28T01:26:05;102163.00;;;-5.60;100.00
13422;BME280;6782;55.904;13.396;2023-01-28T01:28:54;102156.94;;;-5.61;100.00
13422;BME280;6782;55.904;13.396;2023-01-28T01:31:43;102162.16;;;-5.59;100.00
13422;BME280;6782;55.904;13.396;2023-01-28T01:34:30;102151.81;;;-5.61;100.00
13422;BME280;6782;55.904;13.396;2023-01-28T01:37:17;102153.47;;;-5.61;100.00
13422;BME280;6782;55.904;13.396;2023-01-28T01:40:05;102154.78;;;-5.55;100.00
13422;BME280;6782;55.904;13.396;2023-01-28T01:42:53;102164.44;;;-5.51;100.00
13422;BME280;6782;55.904;13.396;2023-01-28T01:45:42;102161.25;;;-5.47;100.00
13422;BME280;6782;55.904;13.396;2023-01-28T01:48:32;102151.13;;;-5.72;100.00
13422;BME280;6782;55.904;13.396;2023-01-28T01:51:24;102135.13;;;-5.81;100.00
13422;BME280;6782;55.904;13.396;2023-01-28T01:54:13;102132.84;;;-5.76;100.00
13422;BME280;6782;55.904;13.396;2023-01-28T01:57:01;102126.03;;;-5.76;100.00
13422;BME280;6782;55.904;13.396;2023-01-28T01:59:51;102138.56;;;-5.67;100.00
13422;BME280;6782;55.904;13.396;2023-01-28T02:02:42;102137.88;;;-5.64;100.00
13422;BME280;6782;55.904;13.396;2023-01-28T02:05:29;102127.91;;;-5.73;100.00
13422;BME280;6782;55.904;13.396;2023-01-28T02:08:17;102133.56;;;-5.79;100.00
13422;BME280;6782;55.904;13.396;2023-01-28T02:11:07;102131.66;;;-5.68;100.00
13422;BME280;6782;55.904;13.396;2023-01-28T02:13:58;102115.41;;;-5.95;100.00
13422;BME280;6782;55.904;13.396;2023-01-28T02:16:47;102093.47;;;-6.29;100.00
13422;BME280;6782;55.904;13.396;2023-01-28T02:19:40;102091.69;;;-6.30;100.00
13422;BME280;6782;55.904;13.396;2023-01-28T02:29:32;102098.53;;;-6.17;100.00
13422;BME280;6782;55.904;13.396;2023-01-28T02:32:30;102097.44;;;-5.95;100.00
13422;BME280;6782;55.904;13.396;2023-01-28T02:35:26;102079.03;;;-6.01;100.00
13422;BME280;6782;55.904;13.396;2023-01-28T02:38:19;102083.19;;;-6.16;100.00
13422;BME280;6782;55.904;13.396;2023-01-28T02:41:13;102082.72;;;-6.10;100.00
13422;BME280;6782;55.904;13.396;2023-01-28T02:44:02;102097.03;;;-6.01;100.00
13422;BME280;6782;55.904;13.396;2023-01-28T02:46:52;102082.84;;;-6.09;100.00
13422;BME280;6782;55.904;13.396;2023-01-28T02:49:59;102074.16;;;-6.24;100.00
13422;BME280;6782;55.904;13.396;2023-01-28T02:52:55;102086.88;;;-6.12;100.00
13422;BME280;6782;55.904;13.396;2023-01-28T02:56:11;102093.19;;;-6.07;100.00
13422;BME280;6782;55.904;13.396;2023-01-28T02:59:07;102056.53;;;-6.31;100.00
13422;BME280;6782;55.904;13.396;2023-01-28T03:02:19;102067.00;;;-6.28;100.00
13422;BME280;6782;55.904;13.396;2023-01-28T03:05:14;102076.50;;;-6.14;100.00
13422;BME280;6782;55.904;13.396;2023-01-28T03:08:04;102064.53;;;-6.26;100.00
13422;BME280;6782;55.904;13.396;2023-01-28T03:11:07;102048.03;;;-6.56;100.00
13422;BME280;6782;55.904;13.396;2023-01-28T03:14:12;102037.06;;;-6.80;100.00
13422;BME280;6782;55.904;13.396;2023-01-28T03:17:22;102052.84;;;-6.74;100.00
13422;BME280;6782;55.904;13.396;2023-01-28T03:20:34;102082.00;;;-6.34;100.00
13422;BME280;6782;55.904;13.396;2023-01-28T03:23:43;102080.63;;;-6.29;100.00
13422;BME280;6782;55.904;13.396;2023-01-28T03:26:57;102077.56;;;-6.23;100.00
13422;BME280;6782;55.904;13.396;2023-01-28T03:30:10;102090.53;;;-6.09;100.00
13422;BME280;6782;55.904;13.396;2023-01-28T03:33:17;102101.19;;;-6.03;100.00
13422;BME280;6782;55.904;13.396;2023-01-28T03:36:23;102105.53;;;-5.89;100.00
13422;BME280;6782;55.904;13.396;2023-01-28T03:39:29;102102.47;;;-5.96;100.00
13422;BME280;6782;55.904;13.396;2023-01-28T03:42:16;102097.44;;;-6.08;100.00
13422;BME280;6782;55.904;13.396;2023-01-28T03:45:05;102097.63;;;-6.05;100.00
13422;BME280;6782;55.904;13.396;2023-01-28T03:47:52;102100.69;;;-5.97;100.00
13422;BME280;6782;55.904;13.396;2023-01-28T03:50:41;102099.50;;;-5.89;100.00
13422;BME280;6782;55.904;13.396;2023-01-28T03:53:28;102101.34;;;-5.74;100.00
13422;BME280;6782;55.904;13.396;2023-01-28T03:56:15;102107.94;;;-5.64;100.00
13422;BME280;6782;55.904;13.396;2023-01-28T03:59:05;102108.00;;;-5.49;100.00
13422;BME280;6782;55.904;13.396;2023-01-28T04:01:52;102109.38;;;-5.41;100.00
13422;BME280;6782;55.904;13.396;2023-01-28T04:04:40;102104.34;;;-5.40;100.00
13422;BME280;6782;55.904;13.396;2023-01-28T04:07:29;102111.44;;;-5.36;100.00
13422;BME280;6782;55.904;13.396;2023-01-28T04:10:16;102103.63;;;-5.37;100.00
13422;BME280;6782;55.904;13.396;2023-01-28T04:13:04;102100.25;;;-5.36;100.00
13422;BME280;6782;55.904;13.396;2023-01-28T04:15:52;102082.09;;;-5.39;100.00
13422;BME280;6782;55.904;13.396;2023-01-28T04:18:39;102085.84;;;-5.34;100.00
13422;BME280;6782;55.904;13.396;2023-01-28T04:21:26;102075.09;;;-5.42;100.00
13422;BME280;6782;55.904;13.396;2023-01-28T04:24:15;102081.66;;;-5.32;100.00
13422;BME280;6782;55.904;13.396;2023-01-28T04:27:02;102074.38;;;-5.39;100.00
13422;BME280;6782;55.904;13.396;2023-01-28T04:29:49;102079.88;;;-5.33;100.00
13422;BME280;6782;55.904;13.396;2023-01-28T04:32:37;102073.28;;;-5.43;100.00
13422;BME280;6782;55.904;13.396;2023-01-28T04:35:24;102066.06;;;-5.35;100.00
13422;BME280;6782;55.904;13.396;2023-01-28T04:38:11;102060.53;;;-5.41;100.00
13422;BME280;6782;55.904;13.396;2023-01-28T04:41:00;102062.91;;;-5.44;100.00
13422;BME280;6782;55.904;13.396;2023-01-28T04:43:47;102075.25;;;-5.39;100.00
13422;BME280;6782;55.904;13.396;2023-01-28T04:46:34;102077.97;;;-5.23;100.00
13422;BME280;6782;55.904;13.396;2023-01-28T04:49:21;102075.47;;;-5.21;100.00
13422;BME280;6782;55.904;13.396;2023-01-28T04:52:09;102069.47;;;-5.22;100.00
13422;BME280;6782;55.904;13.396;2023-01-28T04:54:56;102071.16;;;-5.22;100.00
13422;BME280;6782;55.904;13.396;2023-01-28T04:57:45;102068.38;;;-5.25;100.00
13422;BME280;6782;55.904;13.396;2023-01-28T05:00:33;102066.00;;;-5.22;100.00
13422;BME280;6782;55.904;13.396;2023-01-28T05:03:20;102076.44;;;-5.06;100.00
13422;BME280;6782;55.904;13.396;2023-01-28T05:06:08;102079.97;;;-5.04;100.00
13422;BME280;6782;55.904;13.396;2023-01-28T05:08:55;102081.56;;;-5.06;100.00
13422;BME280;6782;55.904;13.396;2023-01-28T05:11:42;102067.72;;;-5.08;100.00
13422;BME280;6782;55.904;13.396;2023-01-28T05:14:31;102075.38;;;-4.95;100.00
13422;BME280;6782;55.904;13.396;2023-01-28T05:17:18;102069.25;;;-4.97;100.00
13422;BME280;6782;55.904;13.396;2023-01-28T05:20:06;102062.50;;;-4.95;100.00
13422;BME280;6782;55.904;13.396;2023-01-28T05:22:53;102081.63;;;-4.77;100.00
13422;BME280;6782;55.904;13.396;2023-01-28T05:25:40;102075.56;;;-4.77;100.00
13422;BME280;6782;55.904;13.396;2023-01-28T05:28:28;102073.09;;;-4.76;100.00
13422;BME280;6782;55.904;13.396;2023-01-28T05:31:16;102079.03;;;-4.77;100.00
13422;BME280;6782;55.904;13.396;2023-01-28T05:34:03;102084.44;;;-4.72;100.00
13422;BME280;6782;55.904;13.396;2023-01-28T05:36:50;102096.78;;;-4.67;100.00
13422;BME280;6782;55.904;13.396;2023-01-28T05:39:38;102088.75;;;-4.58;100.00
13422;BME280;6782;55.904;13.396;2023-01-28T05:42:25;102097.81;;;-4.50;100.00
13422;BME280;6782;55.904;13.396;2023-01-28T05:45:12;102086.41;;;-4.68;100.00
13422;BME280;6782;55.904;13.396;2023-01-28T05:48:01;102108.44;;;-4.59;100.00
13422;BME280;6782;55.904;13.396;2023-01-28T05:50:48;102114.56;;;-4.57;100.00
13422;BME280;6782;55.904;13.396;2023-01-28T05:53:35;102121.22;;;-4.46;100.00
13422;BME280;6782;55.904;13.396;2023-01-28T05:56:22;102119.72;;;-4.42;100.00
13422;BME280;6782;55.904;13.396;2023-01-28T05:59:10;102121.50;;;-4.41;100.00
13422;BME280;6782;55.904;13.396;2023-01-28T06:01:58;102131.72;;;-4.43;100.00
13422;BME280;6782;55.904;13.396;2023-01-28T06:04:46;102131.72;;;-4.43;100.00
13422;BME280;6782;55.904;13.396;2023-01-28T06:07:33;102135.44;;;-4.37;100.00
13422;BME280;6782;55.904;13.396;2023-01-28T06:10:20;102133.31;;;-4.30;100.00
13422;BME280;6782;55.904;13.396;2023-01-28T06:13:07;102140.97;;;-4.31;100.00
13422;BME280;6782;55.904;13.396;2023-01-28T06:15:55;102141.28;;;-4.25;100.00
13422;BME280;6782;55.904;13.396;2023-01-28T06:18:42;102157.13;;;-4.19;100.00
13422;BME280;6782;55.904;13.396;2023-01-28T06:21:31;102174.16;;;-4.07;100.00
13422;BME280;6782;55.904;13.396;2023-01-28T06:24:18;102171.31;;;-3.97;100.00
13422;BME280;6782;55.904;13.396;2023-01-28T06:27:05;102154.78;;;-4.00;100.00
13422;BME280;6782;55.904;13.396;2023-01-28T06:29:52;102170.88;;;-4.04;100.00
13422;BME280;6782;55.904;13.396;2023-01-28T06:32:39;102170.88;;;-4.04;100.00
13422;BME280;6782;55.904;13.396;2023-01-28T06:35:26;102161.38;;;-4.05;100.00
13422;BME280;6782;55.904;13.396;2023-01-28T06:38:15;102165.66;;;-4.06;100.00
13422;BME280;6782;55.904;13.396;2023-01-28T06:41:03;102173.63;;;-4.01;100.00
13422;BME280;6782;55.904;13.396;2023-01-28T06:43:50;102169.09;;;-4.05;100.00
13422;BME280;6782;55.904;13.396;2023-01-28T06:46:37;102179.06;;;-4.11;100.00
13422;BME280;6782;55.904;13.396;2023-01-28T06:49:24;102195.50;;;-4.09;100.00
13422;BME280;6782;55.904;13.396;2023-01-28T06:52:11;102186.78;;;-4.11;100.00
13422;BME280;6782;55.904;13.396;2023-01-28T06:55:00;102196.00;;;-4.00;100.00
13422;BME280;6782;55.904;13.396;2023-01-28T06:57:47;102189.19;;;-4.00;100.00
13422;BME280;6782;55.904;13.396;2023-01-28T07:00:35;102198.94;;;-3.94;100.00
13422;BME280;6782;55.904;13.396;2023-01-28T07:03:22;102212.28;;;-3.87;100.00
13422;BME280;6782;55.904;13.396;2023-01-28T07:06:10;102217.34;;;-3.88;100.00
13422;BME280;6782;55.904;13.396;2023-01-28T07:08:57;102215.94;;;-3.83;100.00
13422;BME280;6782;55.904;13.396;2023-01-28T07:11:45;102222.25;;;-3.78;100.00
13422;BME280;6782;55.904;13.396;2023-01-28T07:14:32;102218.41;;;-3.70;100.00
13422;BME280;6782;55.904;13.396;2023-01-28T07:17:19;102225.69;;;-3.63;100.00
13422;BME280;6782;55.904;13.396;2023-01-28T07:20:08;102224.44;;;-3.55;100.00
13422;BME280;6782;55.904;13.396;2023-01-28T07:22:56;102236.16;;;-3.45;100.00
13422;BME280;6782;55.904;13.396;2023-01-28T07:25:43;102244.75;;;-3.30;100.00
13422;BME280;6782;55.904;13.396;2023-01-28T07:28:32;102247.69;;;-3.24;100.00
13422;BME280;6782;55.904;13.396;2023-01-28T07:31:19;102241.44;;;-3.28;100.00
13422;BME280;6782;55.904;13.396;2023-01-28T07:34:07;102249.88;;;-3.16;100.00
13422;BME280;6782;55.904;13.396;2023-01-28T07:36:55;102264.63;;;-2.98;100.00
13422;BME280;6782;55.904;13.396;2023-01-28T07:39:43;102261.06;;;-2.84;100.00
13422;BME280;6782;55.904;13.396;2023-01-28T07:42:30;102266.91;;;-2.72;100.00
13422;BME280;6782;55.904;13.396;2023-01-28T07:45:19;102279.66;;;-2.59;100.00
13422;BME280;6782;55.904;13.396;2023-01-28T07:48:08;102281.94;;;-2.49;100.00
13422;BME280;6782;55.904;13.396;2023-01-28T07:50:57;102293.41;;;-2.28;100.00
13422;BME280;6782;55.904;13.396;2023-01-28T07:53:45;102294.38;;;-2.10;100.00
13422;BME280;6782;55.904;13.396;2023-01-28T07:56:32;102301.31;;;-1.93;100.00
13422;BME280;6782;55.904;13.396;2023-01-28T07:59:19;102314.09;;;-1.96;100.00
13422;BME280;6782;55.904;13.396;2023-01-28T08:02:11;102316.34;;;-1.85;100.00
13422;BME280;6782;55.904;13.396;2023-01-28T08:04:58;102327.78;;;-1.64;100.00
13422;BME280;6782;55.904;13.396;2023-01-28T08:07:46;102339.66;;;-1.52;100.00
13422;BME280;6782;55.904;13.396;2023-01-28T08:10:34;102336.97;;;-1.53;100.00
13422;BME280;6782;55.904;13.396;2023-01-28T08:13:21;102353.09;;;-1.41;100.00
13422;BME280;6782;55.904;13.396;2023-01-28T08:16:08;102356.53;;;-1.42;100.00
13422;BME280;6782;55.904;13.396;2023-01-28T08:18:57;102358.59;;;-1.35;100.00
13422;BME280;6782;55.904;13.396;2023-01-28T08:21:46;102354.31;;;-1.35;100.00
13422;BME280;6782;55.904;13.396;2023-01-28T08:24:33;102357.13;;;-1.30;100.00
13422;BME280;6782;55.904;13.396;2023-01-28T08:27:20;102364.09;;;-1.29;100.00
13422;BME280;6782;55.904;13.396;2023-01-28T08:30:09;102360.19;;;-1.21;100.00
13422;BME280;6782;55.904;13.396;2023-01-28T08:32:56;102350.97;;;-1.16;100.00
13422;BME280;6782;55.904;13.396;2023-01-28T08:35:45;102356.13;;;-1.16;100.00
13422;BME280;6782;55.904;13.396;2023-01-28T08:38:32;102353.03;;;-1.09;100.00
13422;BME280;6782;55.904;13.396;2023-01-28T08:41:20;102346.38;;;-1.04;100.00
13422;BME280;6782;55.904;13.396;2023-01-28T08:44:07;102351.56;;;-1.04;100.00
13422;BME280;6782;55.904;13.396;2023-01-28T08:46:54;102354.50;;;-0.96;100.00
13422;BME280;6782;55.904;13.396;2023-01-28T08:49:41;102359.91;;;-0.92;100.00
13422;BME280;6782;55.904;13.396;2023-01-28T08:52:30;102363.13;;;-0.80;100.00
13422;BME280;6782;55.904;13.396;2023-01-28T08:55:17;102353.72;;;-0.78;100.00
13422;BME280;6782;55.904;13.396;2023-01-28T08:58:06;102347.69;;;-0.77;100.00
13422;BME280;6782;55.904;13.396;2023-01-28T09:00:53;102347.84;;;-0.74;100.00
13422;BME280;6782;55.904;13.396;2023-01-28T09:03:40;102355.19;;;-0.65;100.00
13422;BME280;6782;55.904;13.396;2023-01-28T09:06:28;102363.97;;;-0.62;100.00
13422;BME280;6782;55.904;13.396;2023-01-28T09:09:17;102376.25;;;-0.57;100.00
13422;BME280;6782;55.904;13.396;2023-01-28T09:12:05;102362.78;;;-0.50;100.00
13422;BME280;6782;55.904;13.396;2023-01-28T09:14:53;102369.75;;;-0.49;100.00
13422;BME280;6782;55.904;13.396;2023-01-28T09:17:40;102373.59;;;-0.41;100.00
13422;BME280;6782;55.904;13.396;2023-01-28T09:20:27;102365.13;;;-0.37;100.00
13422;BME280;6782;55.904;13.396;2023-01-28T09:23:14;102370.47;;;-0.34;100.00
13422;BME280;6782;55.904;13.396;2023-01-28T09:26:04;102370.31;;;-0.37;100.00
13422;BME280;6782;55.904;13.396;2023-01-28T09:28:52;102373.41;;;-0.27;100.00
13422;BME280;6782;55.904;13.396;2023-01-28T09:31:39;102372.66;;;-0.24;100.00
13422;BME280;6782;55.904;13.396;2023-01-28T09:34:26;102355.16;;;-0.28;100.00
13422;BME280;6782;55.904;13.396;2023-01-28T09:37:14;102367.03;;;-0.16;100.00
13422;BME280;6782;55.904;13.396;2023-01-28T09:40:03;102363.53;;;-0.16;100.00
13422;BME280;6782;55.904;13.396;2023-01-28T09:43:23;102370.63;;;-0.12;100.00
13422;BME280;6782;55.904;13.396;2023-01-28T09:46:14;102375.41;;;-0.02;100.00
13422;BME280;6782;55.904;13.396;2023-01-28T09:49:10;102358.84;;;-0.06;100.00
13422;BME280;6782;55.904;13.396;2023-01-28T09:52:00;102370.50;;;0.04;100.00
13422;BME280;6782;55.904;13.396;2023-01-28T09:54:50;102365.59;;;0.10;100.00
13422;BME280;6782;55.904;13.396;2023-01-28T09:57:41;102357.72;;;0.09;100.00
13422;BME280;6782;55.904;13.396;2023-01-28T10:00:37;102340.75;;;0.15;100.00
13422;BME280;6782;55.904;13.396;2023-01-28T10:03:32;102336.50;;;0.17;100.00
13422;BME280;6782;55.904;13.396;2023-01-28T10:06:27;102331.94;;;0.12;100.00
13422;BME280;6782;55.904;13.396;2023-01-28T10:09:31;102341.69;;;0.17;100.00
13422;BME280;6782;55.904;13.396;2023-01-28T10:12:32;102341.00;;;0.21;100.00
13422;BME280;6782;55.904;13.396;2023-01-28T10:15:29;102333.50;;;0.27;100.00
13422;BME280;6782;55.904;13.396;2023-01-28T10:18:30;102323.69;;;0.20;100.00
13422;BME280;6782;55.904;13.396;2023-01-28T10:21:24;102329.06;;;0.25;100.00
13422;BME280;6782;55.904;13.396;2023-01-28T10:24:16;102321.47;;;0.29;100.00
13422;BME280;6782;55.904;13.396;2023-01-28T10:27:19;102313.88;;;0.34;100.00
13422;BME280;6782;55.904;13.396;2023-01-28T10:30:16;102320.09;;;0.37;100.00
13422;BME280;6782;55.904;13.396;2023-01-28T10:33:12;102311.59;;;0.41;100.00
13422;BME280;6782;55.904;13.396;2023-01-28T10:36:05;102321.03;;;0.39;100.00
13422;BME280;6782;55.904;13.396;2023-01-28T10:38:53;102311.50;;;0.38;100.00
13422;BME280;6782;55.904;13.396;2023-01-28T10:41:40;102306.41;;;0.41;100.00
13422;BME280;6782;55.904;13.396;2023-01-28T10:44:31;102293.53;;;0.43;100.00
13422;BME280;6782;55.904;13.396;2023-01-28T10:47:28;102287.44;;;0.42;100.00
13422;BME280;6782;55.904;13.396;2023-01-28T10:50:17;102271.25;;;0.48;100.00
13422;BME280;6782;55.904;13.396;2023-01-28T10:53:07;102259.16;;;0.48;100.00
13422;BME280;6782;55.904;13.396;2023-01-28T10:55:57;102265.16;;;0.47;100.00
13422;BME280;6782;55.904;13.396;2023-01-28T10:58:53;102270.94;;;0.61;100.00
13422;BME280;6782;55.904;13.396;2023-01-28T11:01:44;102255.66;;;0.69;100.00
13422;BME280;6782;55.904;13.396;2023-01-28T11:04:33;102262.88;;;0.76;100.00
13422;BME280;6782;55.904;13.396;2023-01-28T11:07:21;102250.19;;;0.83;100.00
13422;BME280;6782;55.904;13.396;2023-01-28T11:10:25;102258.16;;;0.88;100.00
13422;BME280;6782;55.904;13.396;2023-01-28T11:13:19;102251.56;;;0.96;100.00
13422;BME280;6782;55.904;13.396;2023-01-28T11:16:15;102258.66;;;1.00;100.00
13422;BME280;6782;55.904;13.396;2023-01-28T11:19:04;102258.31;;;1.13;100.00
13422;BME280;6782;55.904;13.396;2023-01-28T11:21:54;102262.75;;;1.15;100.00
13422;BME280;6782;55.904;13.396;2023-01-28T11:24:42;102258.84;;;1.04;100.00
13422;BME280;6782;55.904;13.396;2023-01-28T11:27:31;102269.41;;;1.09;100.00
13422;BME280;6782;55.904;13.396;2023-01-28T11:30:21;102263.53;;;1.13;100.00
13422;BME280;6782;55.904;13.396;2023-01-28T11:33:16;102252.13;;;1.09;100.00
13422;BME280;6782;55.904;13.396;2023-01-28T11:36:06;102245.56;;;1.19;100.00
13422;BME280;6782;55.904;13.396;2023-01-28T11:38:55;102239.47;;;1.18;100.00
13422;BME280;6782;55.904;13.396;2023-01-28T11:41:43;102221.34;;;1.20;100.00
13422;BME280;6782;55.904;13.396;2023-01-28T11:44:31;102207.78;;;1.05;100.00
13422;BME280;6782;55.904;13.396;2023-01-28T11:47:32;102210.84;;;1.17;100.00
13422;BME280;6782;55.904;13.396;2023-01-28T11:50:24;102209.16;;;1.19;100.00
13422;BME280;6782;55.904;13.396;2023-01-28T11:56:41;102192.41;;;1.33;100.00
13422;BME280;6782;55.904;13.396;2023-01-28T11:59:44;102185.94;;;1.23;100.00
13422;BME280;6782;55.904;13.396;2023-01-28T12:02:44;102185.88;;;1.20;100.00
13422;BME280;6782;55.904;13.396;2023-01-28T12:05:47;102197.81;;;1.39;100.00
13422;BME280;6782;55.904;13.396;2023-01-28T12:08:39;102188.13;;;1.35;100.00
13422;BME280;6782;55.904;13.396;2023-01-28T12:11:33;102176.94;;;1.36;100.00
13422;BME280;6782;55.904;13.396;2023-01-28T12:14:51;102173.34;;;1.34;100.00
13422;BME280;6782;55.904;13.396;2023-01-28T12:17:53;102175.47;;;1.44;100.00
13422;BME280;6782;55.904;13.396;2023-01-28T12:20:50;102170.34;;;1.46;100.00
13422;BME280;6782;55.904;13.396;2023-01-28T12:23:54;102163.00;;;1.59;100.00
13422;BME280;6782;55.904;13.396;2023-01-28T12:26:49;102164.09;;;1.64;100.00
13422;BME280;6782;55.904;13.396;2023-01-28T12:29:46;102158.00;;;1.64;100.00
13422;BME280;6782;55.904;13.396;2023-01-28T12:32:51;102144.91;;;1.62;100.00
13422;BME280;6782;55.904;13.396;2023-01-28T12:35:54;102155.84;;;1.77;100.00
13422;BME280;6782;55.904;13.396;2023-01-28T12:38:56;102165.59;;;1.83;100.00
13422;BME280;6782;55.904;13.396;2023-01-28T12:41:48;102161.06;;;1.77;100.00
13422;BME280;6782;55.904;13.396;2023-01-28T12:44:41;102141.91;;;1.75;100.00
13422;BME280;6782;55.904;13.396;2023-01-28T12:47:34;102143.81;;;1.79;100.00
13422;BME280;6782;55.904;13.396;2023-01-28T12:50:26;102143.28;;;1.89;100.00
13422;BME280;6782;55.904;13.396;2023-01-28T12:53:22;102130.19;;;1.86;100.00
13422;BME280;6782;55.904;13.396;2023-01-28T12:56:14;102121.44;;;1.84;100.00
13422;BME280;6782;55.904;13.396;2023-01-28T12:59:09;102113.81;;;1.90;100.00
13422;BME280;6782;55.904;13.396;2023-01-28T13:02:19;102118.09;;;1.88;100.00
13422;BME280;6782;55.904;13.396;2023-01-28T13:05:10;102100.72;;;1.87;100.00
13422;BME280;6782;55.904;13.396;2023-01-28T13:08:02;102088.66;;;1.89;100.00
13422;BME280;6782;55.904;13.396;2023-01-28T13:10:52;102077.16;;;1.83;100.00
13422;BME280;6782;55.904;13.396;2023-01-28T13:13:41;102064.22;;;1.84;100.00
13422;BME280;6782;55.904;13.396;2023-01-28T13:16:32;102075.03;;;1.97;100.00
13422;BME280;6782;55.904;13.396;2023-01-28T13:19:24;102067.53;;;1.80;100.00
13422;BME280;6782;55.904;13.396;2023-01-28T13:22:27;102069.09;;;1.75;100.00
13422;BME280;6782;55.904;13.396;2023-01-28T13:25:20;102065.03;;;1.83;100.00
13422;BME280;6782;55.904;13.396;2023-01-28T13:28:24;102087.81;;;1.90;100.00
13422;BME280;6782;55.904;13.396;2023-01-28T13:31:14;102081.41;;;1.79;100.00
13422;BME280;6782;55.904;13.396;2023-01-28T13:34:05;102067.66;;;1.83;100.00
13422;BME280;6782;55.904;13.396;2023-01-28T13:36:55;102074.81;;;1.90;100.00
13422;BME280;6782;55.904;13.396;2023-01-28T13:39:47;102074.19;;;1.98;100.00
13422;BME280;6782;55.904;13.396;2023-01-28T13:42:36;102068.03;;;1.96;100.00
13422;BME280;6782;55.904;13.396;2023-01-28T13:45:25;102057.50;;;1.91;100.00
13422;BME280;6782;55.904;13.396;2023-01-28T13:48:20;102063.63;;;1.93;100.00
13422;BME280;6782;55.904;13.396;2023-01-28T13:51:16;102058.28;;;1.88;100.00
13422;BME280;6782;55.904;13.396;2023-01-28T13:54:10;102049.66;;;1.89;100.00
13422;BME280;6782;55.904;13.396;2023-01-28T13:57:23;102060.22;;;1.96;100.00
13422;BME280;6782;55.904;13.396;2023-01-28T14:00:22;102055.03;;;1.96;100.00
13422;BME280;6782;55.904;13.396;2023-01-28T14:03:54;102043.81;;;1.97;100.00
13422;BME280;6782;55.904;13.396;2023-01-28T14:07:08;102035.97;;;1.95;100.00
13422;BME280;6782;55.904;13.396;2023-01-28T14:13:21;102051.97;;;2.07;100.00
13422;BME280;6782;55.904;13.396;2023-01-28T14:16:31;102054.41;;;2.03;100.00
13422;BME280;6782;55.904;13.396;2023-01-28T14:19:27;102070.03;;;2.03;100.00
13422;BME280;6782;55.904;13.396;2023-01-28T14:22:18;102056.22;;;2.05;100.00
13422;BME280;6782;55.904;13.396;2023-01-28T14:25:11;102070.03;;;2.03;100.00
13422;BME280;6782;55.904;13.396;2023-01-28T14:28:17;102082.19;;;2.04;100.00
13422;BME280;6782;55.904;13.396;2023-01-28T14:31:10;102086.59;;;2.06;100.00
13422;BME280;6782;55.904;13.396;2023-01-28T14:34:05;102088.97;;;1.99;100.00
13422;BME280;6782;55.904;13.396;2023-01-28T14:36:59;102089.84;;;1.99;100.00
13422;BME280;6782;55.904;13.396;2023-01-28T14:39:51;102094.22;;;2.00;100.00
13422;BME280;6782;55.904;13.396;2023-01-28T14:42:43;102094.16;;;1.99;100.00
13422;BME280;6782;55.904;13.396;2023-01-28T14:45:51;102094.16;;;1.99;100.00
13422;BME280;6782;55.904;13.396;2023-01-28T14:48:49;102087.88;;;1.92;100.00
13422;BME280;6782;55.904;13.396;2023-01-28T14:51:57;102082.59;;;1.90;100.00
13422;BME280;6782;55.904;13.396;2023-01-28T14:54:59;102078.44;;;1.96;100.00
13422;BME280;6782;55.904;13.396;2023-01-28T14:57:53;102080.13;;;1.94;100.00
13422;BME280;6782;55.904;13.396;2023-01-28T15:00:52;102083.47;;;1.89;100.00
13422;BME280;6782;55.904;13.396;2023-01-28T15:03:44;102077.38;;;1.89;100.00